Terminal Aerodrome Forecast
Issued by NWS Charleston, WV

Home | Current Version | Previous Version | Text Only | Print | Product List | Glossary On
Versions: 1 2 3 4 5 6 7 8 9 10 11 12 13 14 15 16 17 18 19 20 21 22 23 24
000
FTUS41 KRLX 020500 RRA
TAFCRW
TAF
KCRW 020551Z 0206/0306 29004KT 1SM -RA BR OVC004
      TEMPO 0206/0207 3SM -RA BR OVC005
     FM020700 29007KT 3SM -RA BR OVC005
     FM020900 29008KT 6SM BR OVC010
     FM021200 32006KT P6SM BKN020
     FM021700 32005KT P6SM SCT020=

USA.gov is the U.S. government's official web portal to all federal, state and local government web resources and services.